sensor_id;sensor_type;location;lat;lon;timestamp;P1;durP1;ratioP1;P2;durP2;ratioP2
16826;SDS011;8530;49.540;8.576;2024-03-07T00:01:45;39.97;;;26.70;;
16826;SDS011;8530;49.540;8.576;2024-03-07T00:04:12;46.67;;;28.10;;
16826;SDS011;8530;49.540;8.576;2024-03-07T00:06:38;45.90;;;30.43;;
16826;SDS011;8530;49.540;8.576;2024-03-07T00:09:06;37.70;;;25.43;;
16826;SDS011;8530;49.540;8.576;2024-03-07T00:11:34;45.00;;;29.80;;
16826;SDS011;8530;49.540;8.576;2024-03-07T00:14:01;45.27;;;29.53;;
16826;SDS011;8530;49.540;8.576;2024-03-07T00:16:29;40.47;;;28.03;;
16826;SDS011;8530;49.540;8.576;2024-03-07T00:18:57;41.10;;;27.53;;
16826;SDS011;8530;49.540;8.576;2024-03-07T00:21:24;46.30;;;29.50;;
16826;SDS011;8530;49.540;8.576;2024-03-07T00:23:51;42.30;;;30.00;;
16826;SDS011;8530;49.540;8.576;2024-03-07T00:26:19;38.20;;;25.77;;
16826;SDS011;8530;49.540;8.576;2024-03-07T00:28:45;44.97;;;28.43;;
16826;SDS011;8530;49.540;8.576;2024-03-07T00:31:12;46.17;;;28.43;;
16826;SDS011;8530;49.540;8.576;2024-03-07T00:33:40;49.57;;;32.87;;
16826;SDS011;8530;49.540;8.576;2024-03-07T00:36:07;51.80;;;32.73;;
16826;SDS011;8530;49.540;8.576;2024-03-07T00:38:34;44.20;;;30.37;;
16826;SDS011;8530;49.540;8.576;2024-03-07T00:41:01;47.47;;;27.27;;
16826;SDS011;8530;49.540;8.576;2024-03-07T00:43:28;42.50;;;28.70;;
16826;SDS011;8530;49.540;8.576;2024-03-07T00:45:54;46.70;;;30.23;;
16826;SDS011;8530;49.540;8.576;2024-03-07T00:48:21;54.07;;;33.23;;
16826;SDS011;8530;49.540;8.576;2024-03-07T00:50:51;44.07;;;30.23;;
16826;SDS011;8530;49.540;8.576;2024-03-07T00:53:18;44.80;;;32.00;;
16826;SDS011;8530;49.540;8.576;2024-03-07T00:55:45;48.50;;;32.70;;
16826;SDS011;8530;49.540;8.576;2024-03-07T00:58:12;46.33;;;30.77;;
16826;SDS011;8530;49.540;8.576;2024-03-07T01:00:38;45.70;;;30.83;;
16826;SDS011;8530;49.540;8.576;2024-03-07T01:03:08;53.83;;;34.00;;
16826;SDS011;8530;49.540;8.576;2024-03-07T01:05:36;50.83;;;31.20;;
16826;SDS011;8530;49.540;8.576;2024-03-07T01:08:05;45.67;;;32.80;;
16826;SDS011;8530;49.540;8.576;2024-03-07T01:10:32;44.23;;;27.47;;
16826;SDS011;8530;49.540;8.576;2024-03-07T01:12:58;47.43;;;30.87;;
16826;SDS011;8530;49.540;8.576;2024-03-07T01:15:27;44.10;;;30.80;;
16826;SDS011;8530;49.540;8.576;2024-03-07T01:17:54;56.80;;;35.03;;
16826;SDS011;8530;49.540;8.576;2024-03-07T01:20:21;55.80;;;34.63;;
16826;SDS011;8530;49.540;8.576;2024-03-07T01:22:48;50.63;;;34.23;;
16826;SDS011;8530;49.540;8.576;2024-03-07T01:25:17;43.87;;;30.60;;
16826;SDS011;8530;49.540;8.576;2024-03-07T01:27:46;50.93;;;32.63;;
16826;SDS011;8530;49.540;8.576;2024-03-07T01:30:14;54.90;;;34.60;;
16826;SDS011;8530;49.540;8.576;2024-03-07T01:32:41;54.10;;;32.57;;
16826;SDS011;8530;49.540;8.576;2024-03-07T01:35:08;54.07;;;34.77;;
16826;SDS011;8530;49.540;8.576;2024-03-07T01:37:35;52.10;;;33.80;;
16826;SDS011;8530;49.540;8.576;2024-03-07T01:40:02;52.77;;;34.73;;
16826;SDS011;8530;49.540;8.576;2024-03-07T01:42:31;55.43;;;32.47;;
16826;SDS011;8530;49.540;8.576;2024-03-07T01:44:58;47.20;;;31.10;;
16826;SDS011;8530;49.540;8.576;2024-03-07T01:47:25;50.57;;;33.17;;
16826;SDS011;8530;49.540;8.576;2024-03-07T01:49:51;48.37;;;34.67;;
16826;SDS011;8530;49.540;8.576;2024-03-07T01:52:18;58.83;;;34.93;;
16826;SDS011;8530;49.540;8.576;2024-03-07T01:54:47;53.53;;;33.63;;
16826;SDS011;8530;49.540;8.576;2024-03-07T01:57:14;47.73;;;34.03;;
16826;SDS011;8530;49.540;8.576;2024-03-07T01:59:44;49.73;;;31.87;;
16826;SDS011;8530;49.540;8.576;2024-03-07T02:02:12;55.50;;;35.37;;
16826;SDS011;8530;49.540;8.576;2024-03-07T02:04:38;54.87;;;35.00;;
16826;SDS011;8530;49.540;8.576;2024-03-07T02:07:05;55.30;;;33.00;;
16826;SDS011;8530;49.540;8.576;2024-03-07T02:09:36;44.40;;;29.97;;
16826;SDS011;8530;49.540;8.576;2024-03-07T02:12:02;55.00;;;36.80;;
16826;SDS011;8530;49.540;8.576;2024-03-07T02:14:28;49.20;;;32.20;;
16826;SDS011;8530;49.540;8.576;2024-03-07T02:16:57;54.20;;;34.23;;
16826;SDS011;8530;49.540;8.576;2024-03-07T02:19:24;57.10;;;34.40;;
16826;SDS011;8530;49.540;8.576;2024-03-07T02:21:53;52.07;;;35.83;;
16826;SDS011;8530;49.540;8.576;2024-03-07T02:24:19;60.80;;;36.20;;
16826;SDS011;8530;49.540;8.576;2024-03-07T02:26:46;51.53;;;34.37;;
16826;SDS011;8530;49.540;8.576;2024-03-07T02:29:13;49.90;;;32.97;;
16826;SDS011;8530;49.540;8.576;2024-03-07T02:31:39;57.80;;;32.03;;
16826;SDS011;8530;49.540;8.576;2024-03-07T02:34:07;48.63;;;33.37;;
16826;SDS011;8530;49.540;8.576;2024-03-07T02:36:34;60.10;;;35.60;;
16826;SDS011;8530;49.540;8.576;2024-03-07T02:39:02;58.80;;;34.97;;
16826;SDS011;8530;49.540;8.576;2024-03-07T02:41:29;58.10;;;36.30;;
16826;SDS011;8530;49.540;8.576;2024-03-07T02:43:56;54.27;;;36.43;;
16826;SDS011;8530;49.540;8.576;2024-03-07T02:46:23;56.07;;;33.03;;
16826;SDS011;8530;49.540;8.576;2024-03-07T02:48:49;56.43;;;36.20;;
16826;SDS011;8530;49.540;8.576;2024-03-07T02:51:16;53.93;;;33.37;;
16826;SDS011;8530;49.540;8.576;2024-03-07T02:53:43;49.50;;;32.20;;
16826;SDS011;8530;49.540;8.576;2024-03-07T02:56:11;52.70;;;32.23;;
16826;SDS011;8530;49.540;8.576;2024-03-07T02:58:37;54.70;;;33.63;;
16826;SDS011;8530;49.540;8.576;2024-03-07T03:01:04;52.00;;;32.17;;
16826;SDS011;8530;49.540;8.576;2024-03-07T03:03:31;59.60;;;33.97;;
16826;SDS011;8530;49.540;8.576;2024-03-07T03:05:58;48.47;;;33.07;;
16826;SDS011;8530;49.540;8.576;2024-03-07T03:08:25;53.90;;;34.63;;
16826;SDS011;8530;49.540;8.576;2024-03-07T03:10:53;53.60;;;32.73;;
16826;SDS011;8530;49.540;8.576;2024-03-07T03:13:23;52.93;;;32.80;;
16826;SDS011;8530;49.540;8.576;2024-03-07T03:15:52;59.70;;;38.10;;
16826;SDS011;8530;49.540;8.576;2024-03-07T03:18:19;54.63;;;35.73;;
16826;SDS011;8530;49.540;8.576;2024-03-07T03:20:46;55.77;;;35.93;;
16826;SDS011;8530;49.540;8.576;2024-03-07T03:23:13;56.50;;;36.27;;
16826;SDS011;8530;49.540;8.576;2024-03-07T03:25:40;54.73;;;37.10;;
16826;SDS011;8530;49.540;8.576;2024-03-07T03:28:07;50.03;;;35.33;;
16826;SDS011;8530;49.540;8.576;2024-03-07T03:30:36;58.87;;;36.87;;
16826;SDS011;8530;49.540;8.576;2024-03-07T03:33:03;58.20;;;37.53;;
16826;SDS011;8530;49.540;8.576;2024-03-07T03:35:30;58.57;;;38.50;;
16826;SDS011;8530;49.540;8.576;2024-03-07T03:37:57;52.37;;;34.07;;
16826;SDS011;8530;49.540;8.576;2024-03-07T03:40:24;57.73;;;35.17;;
16826;SDS011;8530;49.540;8.576;2024-03-07T03:42:50;62.63;;;36.80;;
16826;SDS011;8530;49.540;8.576;2024-03-07T03:45:17;46.90;;;31.73;;
16826;SDS011;8530;49.540;8.576;2024-03-07T03:47:46;53.60;;;34.60;;
16826;SDS011;8530;49.540;8.576;2024-03-07T03:50:13;54.30;;;34.60;;
16826;SDS011;8530;49.540;8.576;2024-03-07T03:52:40;58.67;;;36.03;;
16826;SDS011;8530;49.540;8.576;2024-03-07T03:55:07;45.47;;;33.20;;
16826;SDS011;8530;49.540;8.576;2024-03-07T03:57:35;54.33;;;32.30;;
16826;SDS011;8530;49.540;8.576;2024-03-07T04:00:04;50.93;;;32.80;;
16826;SDS011;8530;49.540;8.576;2024-03-07T04:02:37;51.87;;;34.43;;
16826;SDS011;8530;49.540;8.576;2024-03-07T04:05:06;57.57;;;35.90;;
16826;SDS011;8530;49.540;8.576;2024-03-07T04:07:35;55.83;;;34.03;;
16826;SDS011;8530;49.540;8.576;2024-03-07T04:10:02;56.27;;;36.43;;
16826;SDS011;8530;49.540;8.576;2024-03-07T04:12:31;54.00;;;34.40;;
16826;SDS011;8530;49.540;8.576;2024-03-07T04:14:58;52.60;;;34.03;;
16826;SDS011;8530;49.540;8.576;2024-03-07T04:17:26;48.97;;;33.30;;
16826;SDS011;8530;49.540;8.576;2024-03-07T04:19:52;48.77;;;34.73;;
16826;SDS011;8530;49.540;8.576;2024-03-07T04:22:20;57.30;;;37.10;;
16826;SDS011;8530;49.540;8.576;2024-03-07T04:24:48;53.30;;;35.60;;
16826;SDS011;8530;49.540;8.576;2024-03-07T04:27:19;54.83;;;37.27;;
16826;SDS011;8530;49.540;8.576;2024-03-07T04:29:46;58.30;;;38.30;;
16826;SDS011;8530;49.540;8.576;2024-03-07T04:32:14;58.20;;;34.70;;
16826;SDS011;8530;49.540;8.576;2024-03-07T04:34:41;63.37;;;35.70;;
16826;SDS011;8530;49.540;8.576;2024-03-07T04:37:07;55.03;;;32.83;;
16826;SDS011;8530;49.540;8.576;2024-03-07T04:39:35;59.13;;;36.30;;
16826;SDS011;8530;49.540;8.576;2024-03-07T04:42:02;50.10;;;35.17;;
16826;SDS011;8530;49.540;8.576;2024-03-07T04:44:31;53.73;;;34.13;;
16826;SDS011;8530;49.540;8.576;2024-03-07T04:47:00;58.80;;;37.93;;
16826;SDS011;8530;49.540;8.576;2024-03-07T04:49:28;58.07;;;36.67;;
16826;SDS011;8530;49.540;8.576;2024-03-07T04:51:56;54.27;;;35.33;;
16826;SDS011;8530;49.540;8.576;2024-03-07T04:54:24;57.90;;;37.00;;
16826;SDS011;8530;49.540;8.576;2024-03-07T04:56:53;52.30;;;34.40;;
16826;SDS011;8530;49.540;8.576;2024-03-07T04:59:20;55.37;;;35.73;;
16826;SDS011;8530;49.540;8.576;2024-03-07T05:01:48;56.83;;;36.60;;
16826;SDS011;8530;49.540;8.576;2024-03-07T05:04:17;56.20;;;36.60;;
16826;SDS011;8530;49.540;8.576;2024-03-07T05:06:44;62.17;;;40.30;;
16826;SDS011;8530;49.540;8.576;2024-03-07T05:09:13;63.77;;;39.97;;
16826;SDS011;8530;49.540;8.576;2024-03-07T05:11:48;70.30;;;41.87;;
16826;SDS011;8530;49.540;8.576;2024-03-07T05:14:18;59.63;;;40.23;;
16826;SDS011;8530;49.540;8.576;2024-03-07T05:16:45;65.07;;;40.83;;
16826;SDS011;8530;49.540;8.576;2024-03-07T05:19:27;62.33;;;40.33;;
16826;SDS011;8530;49.540;8.576;2024-03-07T05:21:54;63.20;;;40.70;;
16826;SDS011;8530;49.540;8.576;2024-03-07T05:24:21;59.90;;;38.33;;
16826;SDS011;8530;49.540;8.576;2024-03-07T05:26:47;57.53;;;38.53;;
16826;SDS011;8530;49.540;8.576;2024-03-07T05:29:14;55.80;;;35.30;;
16826;SDS011;8530;49.540;8.576;2024-03-07T05:31:44;63.70;;;41.83;;
16826;SDS011;8530;49.540;8.576;2024-03-07T05:34:12;62.83;;;38.37;;
16826;SDS011;8530;49.540;8.576;2024-03-07T05:36:40;63.20;;;38.23;;
16826;SDS011;8530;49.540;8.576;2024-03-07T05:39:10;57.47;;;36.83;;
16826;SDS011;8530;49.540;8.576;2024-03-07T05:41:37;56.90;;;36.87;;
16826;SDS011;8530;49.540;8.576;2024-03-07T05:44:04;53.53;;;37.33;;
16826;SDS011;8530;49.540;8.576;2024-03-07T05:46:33;63.97;;;39.10;;
16826;SDS011;8530;49.540;8.576;2024-03-07T05:49:02;61.80;;;38.23;;
16826;SDS011;8530;49.540;8.576;2024-03-07T05:51:29;63.37;;;41.40;;
16826;SDS011;8530;49.540;8.576;2024-03-07T05:53:56;53.83;;;35.77;;
16826;SDS011;8530;49.540;8.576;2024-03-07T05:56:22;62.60;;;39.07;;
16826;SDS011;8530;49.540;8.576;2024-03-07T05:58:49;59.53;;;38.90;;
16826;SDS011;8530;49.540;8.576;2024-03-07T06:01:16;56.20;;;37.10;;
16826;SDS011;8530;49.540;8.576;2024-03-07T06:03:43;63.33;;;40.10;;
16826;SDS011;8530;49.540;8.576;2024-03-07T06:06:11;61.20;;;40.23;;
16826;SDS011;8530;49.540;8.576;2024-03-07T06:08:38;76.60;;;39.37;;
16826;SDS011;8530;49.540;8.576;2024-03-07T06:11:07;60.03;;;37.90;;
16826;SDS011;8530;49.540;8.576;2024-03-07T06:13:34;64.70;;;40.40;;
16826;SDS011;8530;49.540;8.576;2024-03-07T06:16:01;65.63;;;39.70;;
16826;SDS011;8530;49.540;8.576;2024-03-07T06:18:32;61.60;;;40.60;;
16826;SDS011;8530;49.540;8.576;2024-03-07T06:20:59;62.43;;;39.07;;
16826;SDS011;8530;49.540;8.576;2024-03-07T06:23:27;54.73;;;36.43;;
16826;SDS011;8530;49.540;8.576;2024-03-07T06:25:55;61.60;;;37.03;;
16826;SDS011;8530;49.540;8.576;2024-03-07T06:28:23;68.00;;;39.03;;
16826;SDS011;8530;49.540;8.576;2024-03-07T06:30:50;63.93;;;37.57;;
16826;SDS011;8530;49.540;8.576;2024-03-07T06:33:17;55.20;;;36.30;;
16826;SDS011;8530;49.540;8.576;2024-03-07T06:35:44;62.80;;;39.90;;
16826;SDS011;8530;49.540;8.576;2024-03-07T06:38:11;62.83;;;39.47;;
16826;SDS011;8530;49.540;8.576;2024-03-07T06:40:39;63.80;;;36.83;;
16826;SDS011;8530;49.540;8.576;2024-03-07T06:43:07;57.50;;;39.03;;
16826;SDS011;8530;49.540;8.576;2024-03-07T06:45:35;58.40;;;36.90;;
16826;SDS011;8530;49.540;8.576;2024-03-07T06:48:02;56.00;;;35.80;;
16826;SDS011;8530;49.540;8.576;2024-03-07T06:50:32;55.60;;;37.13;;
16826;SDS011;8530;49.540;8.576;2024-03-07T06:52:59;54.77;;;37.63;;
16826;SDS011;8530;49.540;8.576;2024-03-07T06:55:25;59.33;;;40.77;;
16826;SDS011;8530;49.540;8.576;2024-03-07T06:57:54;59.17;;;38.20;;
16826;SDS011;8530;49.540;8.576;2024-03-07T07:00:21;55.90;;;38.57;;
16826;SDS011;8530;49.540;8.576;2024-03-07T07:02:48;55.23;;;36.10;;
16826;SDS011;8530;49.540;8.576;2024-03-07T07:05:15;52.83;;;34.70;;
16826;SDS011;8530;49.540;8.576;2024-03-07T07:07:44;63.60;;;36.77;;
16826;SDS011;8530;49.540;8.576;2024-03-07T07:10:11;55.20;;;36.43;;
16826;SDS011;8530;49.540;8.576;2024-03-07T07:12:43;54.27;;;34.90;;
16826;SDS011;8530;49.540;8.576;2024-03-07T07:15:12;58.53;;;34.67;;
16826;SDS011;8530;49.540;8.576;2024-03-07T07:17:40;55.70;;;34.13;;
16826;SDS011;8530;49.540;8.576;2024-03-07T07:20:10;44.30;;;31.43;;
16826;SDS011;8530;49.540;8.576;2024-03-07T07:22:40;45.33;;;32.70;;
16826;SDS011;8530;49.540;8.576;2024-03-07T07:25:07;54.57;;;33.43;;
16826;SDS011;8530;49.540;8.576;2024-03-07T07:27:38;46.57;;;33.20;;
16826;SDS011;8530;49.540;8.576;2024-03-07T07:30:07;48.63;;;29.57;;
16826;SDS011;8530;49.540;8.576;2024-03-07T07:32:36;49.73;;;32.43;;
16826;SDS011;8530;49.540;8.576;2024-03-07T07:35:03;45.03;;;29.40;;
16826;SDS011;8530;49.540;8.576;2024-03-07T07:37:34;41.50;;;28.50;;
16826;SDS011;8530;49.540;8.576;2024-03-07T07:40:01;43.90;;;30.97;;
16826;SDS011;8530;49.540;8.576;2024-03-07T07:42:28;50.53;;;28.83;;
16826;SDS011;8530;49.540;8.576;2024-03-07T07:44:54;37.83;;;26.57;;
16826;SDS011;8530;49.540;8.576;2024-03-07T07:47:21;48.53;;;31.33;;
16826;SDS011;8530;49.540;8.576;2024-03-07T07:49:49;42.13;;;27.47;;
16826;SDS011;8530;49.540;8.576;2024-03-07T07:52:16;38.13;;;26.27;;
16826;SDS011;8530;49.540;8.576;2024-03-07T07:54:43;44.73;;;26.83;;
16826;SDS011;8530;49.540;8.576;2024-03-07T07:57:09;49.17;;;28.20;;
16826;SDS011;8530;49.540;8.576;2024-03-07T07:59:36;36.97;;;26.47;;
16826;SDS011;8530;49.540;8.576;2024-03-07T08:02:03;36.87;;;26.00;;
16826;SDS011;8530;49.540;8.576;2024-03-07T08:04:31;35.50;;;26.00;;
16826;SDS011;8530;49.540;8.576;2024-03-07T08:07:00;39.77;;;26.33;;
16826;SDS011;8530;49.540;8.576;2024-03-07T08:09:27;33.70;;;24.70;;
16826;SDS011;8530;49.540;8.576;2024-03-07T08:11:53;32.53;;;24.90;;
16826;SDS011;8530;49.540;8.576;2024-03-07T08:14:20;35.60;;;24.80;;
16826;SDS011;8530;49.540;8.576;2024-03-07T08:16:48;35.70;;;23.97;;
16826;SDS011;8530;49.540;8.576;2024-03-07T08:19:15;39.10;;;26.90;;
16826;SDS011;8530;49.540;8.576;2024-03-07T08:21:41;33.43;;;24.53;;
16826;SDS011;8530;49.540;8.576;2024-03-07T08:24:09;35.90;;;25.43;;
16826;SDS011;8530;49.540;8.576;2024-03-07T08:26:36;36.47;;;27.20;;
16826;SDS011;8530;49.540;8.576;2024-03-07T08:29:03;34.43;;;24.33;;
16826;SDS011;8530;49.540;8.576;2024-03-07T08:31:30;31.27;;;25.43;;
16826;SDS011;8530;49.540;8.576;2024-03-07T08:33:57;34.57;;;24.90;;
16826;SDS011;8530;49.540;8.576;2024-03-07T08:36:24;37.73;;;26.27;;
16826;SDS011;8530;49.540;8.576;2024-03-07T08:38:51;31.97;;;23.47;;
16826;SDS011;8530;49.540;8.576;2024-03-07T08:41:19;29.93;;;21.37;;
16826;SDS011;8530;49.540;8.576;2024-03-07T08:43:45;28.93;;;20.53;;
16826;SDS011;8530;49.540;8.576;2024-03-07T08:46:14;30.53;;;23.20;;
16826;SDS011;8530;49.540;8.576;2024-03-07T08:48:41;24.67;;;19.57;;
16826;SDS011;8530;49.540;8.576;2024-03-07T08:51:08;28.60;;;19.90;;
16826;SDS011;8530;49.540;8.576;2024-03-07T08:53:34;27.07;;;21.67;;
16826;SDS011;8530;49.540;8.576;2024-03-07T08:56:02;26.20;;;19.70;;
16826;SDS011;8530;49.540;8.576;2024-03-07T08:58:30;20.90;;;17.70;;
16826;SDS011;8530;49.540;8.576;2024-03-07T09:00:57;23.10;;;16.73;;
16826;SDS011;8530;49.540;8.576;2024-03-07T09:03:24;21.33;;;16.20;;
16826;SDS011;8530;49.540;8.576;2024-03-07T09:05:50;22.17;;;16.13;;
16826;SDS011;8530;49.540;8.576;2024-03-07T09:08:17;25.80;;;16.30;;
16826;SDS011;8530;49.540;8.576;2024-03-07T09:10:44;20.57;;;15.50;;
16826;SDS011;8530;49.540;8.576;2024-03-07T09:13:10;18.00;;;15.40;;
16826;SDS011;8530;49.540;8.576;2024-03-07T09:15:38;19.60;;;13.57;;
16826;SDS011;8530;49.540;8.576;2024-03-07T09:18:05;17.90;;;15.03;;
16826;SDS011;8530;49.540;8.576;2024-03-07T09:20:33;19.30;;;14.73;;
16826;SDS011;8530;49.540;8.576;2024-03-07T09:23:00;21.60;;;17.77;;
16826;SDS011;8530;49.540;8.576;2024-03-07T09:25:26;18.70;;;14.83;;
16826;SDS011;8530;49.540;8.576;2024-03-07T09:27:53;19.10;;;15.23;;
16826;SDS011;8530;49.540;8.576;2024-03-07T09:30:20;23.27;;;16.63;;
16826;SDS011;8530;49.540;8.576;2024-03-07T09:32:51;18.37;;;15.67;;
16826;SDS011;8530;49.540;8.576;2024-03-07T09:35:20;19.13;;;14.77;;
16826;SDS011;8530;49.540;8.576;2024-03-07T09:37:47;20.53;;;14.10;;
16826;SDS011;8530;49.540;8.576;2024-03-07T09:40:13;20.93;;;16.33;;
16826;SDS011;8530;49.540;8.576;2024-03-07T09:42:42;20.50;;;16.53;;
16826;SDS011;8530;49.540;8.576;2024-03-07T09:45:12;21.10;;;16.53;;
16826;SDS011;8530;49.540;8.576;2024-03-07T09:47:41;24.87;;;16.87;;
16826;SDS011;8530;49.540;8.576;2024-03-07T09:50:11;20.17;;;16.87;;
16826;SDS011;8530;49.540;8.576;2024-03-07T09:52:39;22.13;;;17.60;;
16826;SDS011;8530;49.540;8.576;2024-03-07T09:55:08;22.20;;;17.47;;
16826;SDS011;8530;49.540;8.576;2024-03-07T09:57:34;19.60;;;16.90;;
16826;SDS011;8530;49.540;8.576;2024-03-07T10:00:02;25.00;;;18.33;;
16826;SDS011;8530;49.540;8.576;2024-03-07T10:02:31;21.10;;;16.90;;
16826;SDS011;8530;49.540;8.576;2024-03-07T10:05:03;21.87;;;17.27;;
16826;SDS011;8530;49.540;8.576;2024-03-07T10:07:34;26.17;;;17.67;;
16826;SDS011;8530;49.540;8.576;2024-03-07T10:10:01;23.00;;;16.97;;
16826;SDS011;8530;49.540;8.576;2024-03-07T10:12:35;20.73;;;15.80;;
16826;SDS011;8530;49.540;8.576;2024-03-07T10:15:03;24.17;;;17.07;;
16826;SDS011;8530;49.540;8.576;2024-03-07T10:17:31;22.17;;;16.67;;
16826;SDS011;8530;49.540;8.576;2024-03-07T10:19:57;24.70;;;18.33;;
16826;SDS011;8530;49.540;8.576;2024-03-07T10:22:25;30.33;;;17.90;;
16826;SDS011;8530;49.540;8.576;2024-03-07T10:24:55;24.87;;;18.67;;
16826;SDS011;8530;49.540;8.576;2024-03-07T10:27:22;23.90;;;17.80;;
16826;SDS011;8530;49.540;8.576;2024-03-07T10:29:51;23.23;;;17.07;;
16826;SDS011;8530;49.540;8.576;2024-03-07T10:32:19;21.43;;;16.53;;
16826;SDS011;8530;49.540;8.576;2024-03-07T10:34:46;21.90;;;16.33;;
16826;SDS011;8530;49.540;8.576;2024-03-07T10:37:13;25.63;;;18.40;;
16826;SDS011;8530;49.540;8.576;2024-03-07T10:39:42;23.10;;;18.33;;
16826;SDS011;8530;49.540;8.576;2024-03-07T10:42:14;26.67;;;17.30;;
16826;SDS011;8530;49.540;8.576;2024-03-07T10:44:42;26.60;;;18.70;;
16826;SDS011;8530;49.540;8.576;2024-03-07T10:47:11;25.13;;;17.23;;
16826;SDS011;8530;49.540;8.576;2024-03-07T10:49:45;26.87;;;19.13;;
16826;SDS011;8530;49.540;8.576;2024-03-07T10:52:27;25.10;;;18.53;;
16826;SDS011;8530;49.540;8.576;2024-03-07T10:55:00;24.87;;;17.87;;
16826;SDS011;8530;49.540;8.576;2024-03-07T10:57:38;23.90;;;18.30;;
16826;SDS011;8530;49.540;8.576;2024-03-07T11:00:12;22.70;;;17.57;;
16826;SDS011;8530;49.540;8.576;2024-03-07T11:02:55;23.80;;;18.27;;
16826;SDS011;8530;49.540;8.576;2024-03-07T11:05:24;22.17;;;16.93;;
16826;SDS011;8530;49.540;8.576;2024-03-07T11:07:54;22.60;;;16.47;;
16826;SDS011;8530;49.540;8.576;2024-03-07T11:10:23;24.87;;;18.77;;
16826;SDS011;8530;49.540;8.576;2024-03-07T11:12:51;26.80;;;19.50;;
16826;SDS011;8530;49.540;8.576;2024-03-07T11:15:20;28.37;;;20.40;;
16826;SDS011;8530;49.540;8.576;2024-03-07T11:17:51;24.87;;;17.80;;
16826;SDS011;8530;49.540;8.576;2024-03-07T11:20:20;25.77;;;18.67;;
16826;SDS011;8530;49.540;8.576;2024-03-07T11:22:48;24.83;;;19.77;;
16826;SDS011;8530;49.540;8.576;2024-03-07T11:25:17;24.67;;;17.17;;
16826;SDS011;8530;49.540;8.576;2024-03-07T11:27:51;22.87;;;18.20;;
16826;SDS011;8530;49.540;8.576;2024-03-07T11:30:20;26.20;;;19.80;;
16826;SDS011;8530;49.540;8.576;2024-03-07T11:32:48;22.37;;;17.40;;
16826;SDS011;8530;49.540;8.576;2024-03-07T11:35:18;24.50;;;19.10;;
16826;SDS011;8530;49.540;8.576;2024-03-07T11:37:50;25.40;;;17.10;;
16826;SDS011;8530;49.540;8.576;2024-03-07T11:43:23;23.00;;;17.00;;
16826;SDS011;8530;49.540;8.576;2024-03-07T11:45:53;23.37;;;17.23;;
16826;SDS011;8530;49.540;8.576;2024-03-07T11:48:22;24.80;;;16.37;;
16826;SDS011;8530;49.540;8.576;2024-03-07T11:50:50;28.43;;;17.83;;
16826;SDS011;8530;49.540;8.576;2024-03-07T11:53:17;23.33;;;16.50;;
16826;SDS011;8530;49.540;8.576;2024-03-07T11:55:43;21.03;;;16.30;;
16826;SDS011;8530;49.540;8.576;2024-03-07T11:58:11;27.57;;;18.30;;
16826;SDS011;8530;49.540;8.576;2024-03-07T12:00:40;20.03;;;15.40;;
16826;SDS011;8530;49.540;8.576;2024-03-07T12:03:10;24.30;;;17.00;;
16826;SDS011;8530;49.540;8.576;2024-03-07T12:05:38;18.73;;;15.50;;
16826;SDS011;8530;49.540;8.576;2024-03-07T12:08:05;19.23;;;15.33;;
16826;SDS011;8530;49.540;8.576;2024-03-07T12:10:34;22.17;;;16.90;;
16826;SDS011;8530;49.540;8.576;2024-03-07T12:13:03;19.93;;;16.10;;
16826;SDS011;8530;49.540;8.576;2024-03-07T12:15:31;23.67;;;17.17;;
16826;SDS011;8530;49.540;8.576;2024-03-07T12:17:59;24.73;;;16.77;;
16826;SDS011;8530;49.540;8.576;2024-03-07T12:20:28;25.03;;;16.60;;
16826;SDS011;8530;49.540;8.576;2024-03-07T12:22:58;22.97;;;16.57;;
16826;SDS011;8530;49.540;8.576;2024-03-07T12:25:27;27.07;;;15.93;;
16826;SDS011;8530;49.540;8.576;2024-03-07T12:28:04;19.77;;;14.33;;
16826;SDS011;8530;49.540;8.576;2024-03-07T12:30:36;25.97;;;15.87;;
16826;SDS011;8530;49.540;8.576;2024-03-07T12:33:14;21.73;;;14.40;;
16826;SDS011;8530;49.540;8.576;2024-03-07T12:35:42;18.43;;;13.03;;
16826;SDS011;8530;49.540;8.576;2024-03-07T12:38:09;18.33;;;12.37;;
16826;SDS011;8530;49.540;8.576;2024-03-07T12:40:38;15.43;;;13.10;;
16826;SDS011;8530;49.540;8.576;2024-03-07T12:43:12;15.73;;;13.43;;
16826;SDS011;8530;49.540;8.576;2024-03-07T12:45:42;16.00;;;12.67;;
16826;SDS011;8530;49.540;8.576;2024-03-07T12:48:10;16.30;;;12.50;;
16826;SDS011;8530;49.540;8.576;2024-03-07T12:50:40;15.00;;;11.43;;
16826;SDS011;8530;49.540;8.576;2024-03-07T12:53:07;15.30;;;12.17;;
16826;SDS011;8530;49.540;8.576;2024-03-07T12:55:37;13.80;;;11.37;;
16826;SDS011;8530;49.540;8.576;2024-03-07T12:58:06;16.13;;;12.57;;
16826;SDS011;8530;49.540;8.576;2024-03-07T13:00:34;20.57;;;12.93;;
16826;SDS011;8530;49.540;8.576;2024-03-07T13:03:01;15.50;;;12.53;;
16826;SDS011;8530;49.540;8.576;2024-03-07T13:05:28;17.60;;;12.77;;
16826;SDS011;8530;49.540;8.576;2024-03-07T13:07:56;15.63;;;11.70;;
16826;SDS011;8530;49.540;8.576;2024-03-07T13:10:23;16.53;;;11.60;;
16826;SDS011;8530;49.540;8.576;2024-03-07T13:12:50;23.33;;;13.63;;
16826;SDS011;8530;49.540;8.576;2024-03-07T13:15:17;14.53;;;12.10;;
16826;SDS011;8530;49.540;8.576;2024-03-07T13:17:46;19.13;;;13.77;;
16826;SDS011;8530;49.540;8.576;2024-03-07T13:20:14;20.40;;;12.37;;
16826;SDS011;8530;49.540;8.576;2024-03-07T13:22:41;16.40;;;12.30;;
16826;SDS011;8530;49.540;8.576;2024-03-07T13:25:14;14.87;;;12.37;;
16826;SDS011;8530;49.540;8.576;2024-03-07T13:27:51;15.53;;;12.73;;
16826;SDS011;8530;49.540;8.576;2024-03-07T13:30:22;18.80;;;14.47;;
16826;SDS011;8530;49.540;8.576;2024-03-07T13:32:52;14.67;;;12.03;;
16826;SDS011;8530;49.540;8.576;2024-03-07T13:35:20;15.40;;;11.73;;
16826;SDS011;8530;49.540;8.576;2024-03-07T13:37:47;16.40;;;12.67;;
16826;SDS011;8530;49.540;8.576;2024-03-07T13:40:16;16.20;;;12.60;;
16826;SDS011;8530;49.540;8.576;2024-03-07T13:42:50;15.73;;;12.93;;
16826;SDS011;8530;49.540;8.576;2024-03-07T13:45:18;17.43;;;13.30;;
16826;SDS011;8530;49.540;8.576;2024-03-07T13:47:47;23.03;;;12.83;;
16826;SDS011;8530;49.540;8.576;2024-03-07T13:50:14;17.53;;;12.67;;
16826;SDS011;8530;49.540;8.576;2024-03-07T13:52:44;15.23;;;13.30;;
16826;SDS011;8530;49.540;8.576;2024-03-07T13:55:31;16.97;;;12.53;;
16826;SDS011;8530;49.540;8.576;2024-03-07T13:58:01;17.23;;;13.67;;
16826;SDS011;8530;49.540;8.576;2024-03-07T14:00:39;23.33;;;16.20;;
16826;SDS011;8530;49.540;8.576;2024-03-07T14:03:22;19.63;;;14.20;;
16826;SDS011;8530;49.540;8.576;2024-03-07T14:06:30;20.50;;;13.80;;
16826;SDS011;8530;49.540;8.576;2024-03-07T14:09:14;19.03;;;13.27;;
16826;SDS011;8530;49.540;8.576;2024-03-07T14:18:12;16.97;;;12.33;;
16826;SDS011;8530;49.540;8.576;2024-03-07T14:21:14;15.27;;;12.37;;
16826;SDS011;8530;49.540;8.576;2024-03-07T14:24:07;18.10;;;14.30;;
16826;SDS011;8530;49.540;8.576;2024-03-07T14:27:14;17.37;;;13.10;;
16826;SDS011;8530;49.540;8.576;2024-03-07T14:29:50;21.77;;;12.90;;
16826;SDS011;8530;49.540;8.576;2024-03-07T14:32:25;18.03;;;13.73;;
16826;SDS011;8530;49.540;8.576;2024-03-07T14:34:55;22.60;;;13.93;;
16826;SDS011;8530;49.540;8.576;2024-03-07T14:37:31;16.70;;;12.90;;
16826;SDS011;8530;49.540;8.576;2024-03-07T14:40:07;18.23;;;11.53;;
16826;SDS011;8530;49.540;8.576;2024-03-07T14:42:36;19.87;;;13.33;;
16826;SDS011;8530;49.540;8.576;2024-03-07T14:45:09;18.07;;;13.77;;
16826;SDS011;8530;49.540;8.576;2024-03-07T14:47:38;22.20;;;15.10;;
16826;SDS011;8530;49.540;8.576;2024-03-07T14:50:05;19.77;;;13.57;;
16826;SDS011;8530;49.540;8.576;2024-03-07T14:52:35;13.67;;;12.10;;